createdAt,value
2023-11-18T00:01:30.070Z,90.65
2023-11-18T00:03:56.765Z,89.76
2023-11-18T00:06:23.356Z,90.46
2023-11-18T00:08:49.876Z,90.10
2023-11-18T00:11:16.743Z,90.16
2023-11-18T00:13:43.312Z,90.16
2023-11-18T00:16:09.897Z,89.65
2023-11-18T00:18:36.469Z,90.71
2023-11-18T00:21:02.971Z,90.18
2023-11-18T00:23:29.462Z,90.07
2023-11-18T00:25:56.041Z,89.74
2023-11-18T00:28:22.573Z,89.58
2023-11-18T00:30:49.103Z,89.45
2023-11-18T00:33:15.887Z,89.39
2023-11-18T00:35:42.526Z,89.98
2023-11-18T00:38:09.020Z,90.70
2023-11-18T00:40:35.569Z,90.49
2023-11-18T00:43:02.069Z,91.21
2023-11-18T00:45:28.585Z,92.18
2023-11-18T00:47:55.362Z,90.44
2023-11-18T00:50:22.042Z,91.11
2023-11-18T00:52:48.589Z,91.16
2023-11-18T00:55:15.285Z,90.86
2023-11-18T00:57:41.752Z,91.30
2023-11-18T01:00:08.235Z,91.51
2023-11-18T01:02:34.789Z,90.90
2023-11-18T01:05:01.299Z,91.43
2023-11-18T01:07:27.822Z,91.40
2023-11-18T01:09:54.414Z,90.50
2023-11-18T01:12:20.864Z,91.66
2023-11-18T01:14:47.442Z,91.65
2023-11-18T01:17:13.976Z,91.53
2023-11-18T01:19:41.088Z,91.85
2023-11-18T01:22:07.743Z,91.06
2023-11-18T01:24:35.206Z,92.14
2023-11-18T01:27:01.769Z,92.11
2023-11-18T01:29:28.338Z,91.71
2023-11-18T01:31:55.055Z,91.33
2023-11-18T01:34:21.664Z,92.40
2023-11-18T01:36:48.244Z,91.87
2023-11-18T01:39:14.891Z,92.78
2023-11-18T01:41:41.397Z,93.56
2023-11-18T01:44:07.929Z,92.30
2023-11-18T01:46:34.526Z,92.77
2023-11-18T01:49:01.058Z,93.13
2023-11-18T01:51:27.521Z,92.12
2023-11-18T01:53:54.092Z,92.33
2023-11-18T01:56:20.597Z,92.67
2023-11-18T01:58:47.079Z,91.89
2023-11-18T02:01:13.702Z,92.80
2023-11-18T02:03:40.271Z,92.30
2023-11-18T02:06:06.830Z,91.36
2023-11-18T02:08:33.701Z,92.29
2023-11-18T02:11:00.223Z,91.57
2023-11-18T02:13:27.030Z,91.78
2023-11-18T02:15:56.652Z,92.20
2023-11-18T02:18:23.347Z,92.23
2023-11-18T02:21:09.861Z,91.08
2023-11-18T02:23:36.241Z,91.75
2023-11-18T02:26:02.782Z,92.57
2023-11-18T02:28:29.465Z,92.28
2023-11-18T02:30:55.952Z,91.14
2023-11-18T02:33:22.568Z,91.43
2023-11-18T02:35:49.136Z,91.32
2023-11-18T02:38:15.621Z,91.17
2023-11-18T02:40:42.212Z,91.86
2023-11-18T02:43:08.788Z,91.83
2023-11-18T02:45:35.272Z,92.50
2023-11-18T02:48:01.851Z,92.64
2023-11-18T02:50:28.472Z,93.23
2023-11-18T02:52:54.984Z,92.01
2023-11-18T02:55:21.611Z,91.85
2023-11-18T02:57:48.181Z,92.29
2023-11-18T03:00:14.681Z,91.37
2023-11-18T03:02:41.415Z,91.67
2023-11-18T03:05:08.063Z,92.08
2023-11-18T03:07:34.621Z,92.67
2023-11-18T03:10:01.158Z,92.02
2023-11-18T03:12:27.884Z,91.26
2023-11-18T03:14:54.373Z,91.58
2023-11-18T03:17:20.886Z,90.94
2023-11-18T03:19:47.469Z,91.18
2023-11-18T03:22:13.987Z,90.97
2023-11-18T03:24:40.475Z,92.71
2023-11-18T03:27:07.115Z,92.59
2023-11-18T03:29:33.609Z,92.42
2023-11-18T03:32:00.214Z,91.93
2023-11-18T03:34:26.923Z,92.14
2023-11-18T03:36:53.389Z,92.21
2023-11-18T03:39:19.899Z,91.74
2023-11-18T03:41:46.531Z,91.98
2023-11-18T03:44:13.037Z,92.53
2023-11-18T03:46:39.642Z,92.03
2023-11-18T03:49:06.245Z,92.84
2023-11-18T03:51:32.740Z,92.39
2023-11-18T03:53:59.281Z,92.22
2023-11-18T03:56:25.871Z,91.96
2023-11-18T03:58:52.351Z,91.54
2023-11-18T04:01:18.902Z,91.61
2023-11-18T04:03:45.562Z,91.31
2023-11-18T04:06:12.156Z,92.25
2023-11-18T04:08:38.624Z,91.62
2023-11-18T04:11:05.228Z,91.17
2023-11-18T04:13:31.707Z,91.55
2023-11-18T04:15:58.206Z,91.99
2023-11-18T04:18:24.801Z,92.98
2023-11-18T04:20:51.925Z,92.44
2023-11-18T04:23:18.498Z,92.01
2023-11-18T04:25:45.115Z,91.56
2023-11-18T04:28:11.654Z,92.08
2023-11-18T04:30:38.213Z,92.48
2023-11-18T04:33:04.851Z,91.76
2023-11-18T04:35:31.328Z,91.12
2023-11-18T04:37:57.892Z,91.79
2023-11-18T04:40:24.588Z,90.80
2023-11-18T04:42:51.155Z,91.08
2023-11-18T04:45:17.656Z,91.91
2023-11-18T04:47:44.526Z,92.71
2023-11-18T04:50:11.299Z,91.55
2023-11-18T04:52:37.985Z,92.66
2023-11-18T04:55:04.660Z,92.30
2023-11-18T04:57:31.367Z,93.02
2023-11-18T04:59:57.867Z,92.97
2023-11-18T05:02:24.548Z,93.25
2023-11-18T05:04:51.115Z,92.06
2023-11-18T05:07:17.669Z,91.67
2023-11-18T05:09:44.327Z,92.91
2023-11-18T05:12:10.817Z,91.82
2023-11-18T05:14:37.286Z,92.79
2023-11-18T05:17:03.956Z,91.87
2023-11-18T05:19:30.491Z,91.02
2023-11-18T05:21:56.946Z,91.39
2023-11-18T05:24:23.512Z,92.52
2023-11-18T05:26:50.669Z,92.03
2023-11-18T05:29:17.149Z,92.02
2023-11-18T05:31:43.929Z,92.71
2023-11-18T05:34:10.604Z,91.64
2023-11-18T05:36:37.283Z,90.98
2023-11-18T05:39:04.496Z,91.03
2023-11-18T05:41:31.840Z,92.17
2023-11-18T05:43:58.704Z,91.41
2023-11-18T05:46:25.735Z,91.22
2023-11-18T05:48:52.959Z,91.55
2023-11-18T05:51:20.248Z,91.32
2023-11-18T05:53:47.206Z,90.46
2023-11-18T05:56:13.954Z,90.48
2023-11-18T05:58:40.592Z,90.76
2023-11-18T06:01:07.722Z,100.00
2023-11-18T06:03:34.977Z,100.00
2023-11-18T06:06:01.504Z,100.00
2023-11-18T06:08:28.060Z,100.00
2023-11-18T06:10:54.594Z,84.16
2023-11-18T06:13:21.092Z,88.13
2023-11-18T06:15:47.698Z,90.38
2023-11-18T06:18:14.251Z,94.96
2023-11-18T06:20:40.848Z,95.82
2023-11-18T06:23:07.518Z,95.44
2023-11-18T06:25:34.105Z,94.44
2023-11-18T06:28:00.714Z,94.10
2023-11-18T06:30:27.380Z,94.75
2023-11-18T06:32:53.914Z,93.52
2023-11-18T06:35:20.453Z,92.33
2023-11-18T06:37:47.140Z,92.94
2023-11-18T06:40:13.651Z,91.89
2023-11-18T06:42:40.094Z,91.47
2023-11-18T06:45:06.682Z,91.41
2023-11-18T06:47:33.384Z,91.66
2023-11-18T06:49:59.974Z,89.24
2023-11-18T06:52:26.666Z,88.62
2023-11-18T06:54:53.234Z,89.28
2023-11-18T06:57:19.717Z,89.83
2023-11-18T06:59:46.341Z,89.93
2023-11-18T07:02:12.978Z,89.35
2023-11-18T07:04:39.615Z,88.02
2023-11-18T07:07:06.418Z,89.04
2023-11-18T07:09:32.924Z,89.38
2023-11-18T07:11:59.418Z,86.42
2023-11-18T07:14:26.145Z,85.15
2023-11-18T07:16:52.672Z,77.13
2023-11-18T07:19:19.198Z,75.87
2023-11-18T07:21:45.860Z,78.96
2023-11-18T07:24:12.410Z,80.58
2023-11-18T07:26:38.894Z,82.64
2023-11-18T07:29:05.513Z,84.49
2023-11-18T07:31:32.060Z,83.52
2023-11-18T07:33:58.530Z,83.55
2023-11-18T07:36:25.204Z,85.27
2023-11-18T07:38:51.727Z,84.88
2023-11-18T07:41:18.213Z,85.24
2023-11-18T07:43:44.948Z,85.92
2023-11-18T07:46:11.508Z,84.47
2023-11-18T07:48:38.000Z,84.80
2023-11-18T07:51:04.616Z,84.94
2023-11-18T07:53:31.134Z,84.22
2023-11-18T07:55:57.641Z,82.72
2023-11-18T07:58:24.521Z,81.56
2023-11-18T08:00:51.106Z,71.67
2023-11-18T08:03:17.650Z,60.75
2023-11-18T08:05:44.363Z,56.19
2023-11-18T08:08:10.890Z,49.88
2023-11-18T08:10:37.507Z,58.93
2023-11-18T08:13:04.186Z,69.20
2023-11-18T08:15:30.777Z,69.20
2023-11-18T08:17:57.331Z,75.20
2023-11-18T08:20:24.019Z,75.20
2023-11-18T08:22:50.504Z,75.20
2023-11-18T08:25:17.016Z,77.48
2023-11-18T08:27:43.573Z,77.14
2023-11-18T08:30:10.072Z,77.42
2023-11-18T08:32:36.708Z,71.51
2023-11-18T08:35:03.361Z,71.47
2023-11-18T08:37:30.612Z,70.36
2023-11-18T08:39:57.117Z,67.46
2023-11-18T08:42:23.821Z,66.21
2023-11-18T08:44:50.378Z,60.48
2023-11-18T08:47:16.871Z,56.68
2023-11-18T08:49:43.499Z,58.81
2023-11-18T08:52:09.990Z,61.37
2023-11-18T08:54:36.522Z,57.48
2023-11-18T08:57:03.146Z,56.67
2023-11-18T08:59:29.687Z,56.16
2023-11-18T09:01:56.288Z,65.79
2023-11-18T09:04:23.078Z,66.41
2023-11-18T09:06:49.599Z,67.55
2023-11-18T09:09:16.090Z,72.76
2023-11-18T09:11:42.685Z,71.19
2023-11-18T09:14:09.290Z,74.61
2023-11-18T09:16:35.826Z,74.51
2023-11-18T09:19:02.409Z,73.64
2023-11-18T09:21:28.917Z,75.28
2023-11-18T09:23:55.570Z,75.01
2023-11-18T09:26:22.213Z,74.07
2023-11-18T09:28:48.881Z,71.49
2023-11-18T09:31:15.402Z,70.27
2023-11-18T09:33:42.016Z,65.79
2023-11-18T09:36:08.531Z,61.65
2023-11-18T09:38:35.197Z,59.71
2023-11-18T09:41:01.832Z,59.80
2023-11-18T09:43:28.389Z,60.25
2023-11-18T09:45:54.868Z,60.05
2023-11-18T09:48:21.496Z,64.77
2023-11-18T09:50:48.040Z,68.37
2023-11-18T09:53:14.591Z,70.25
2023-11-18T09:55:41.288Z,71.74
2023-11-18T09:58:07.847Z,70.56
2023-11-18T10:00:34.499Z,72.68
2023-11-18T10:03:01.464Z,71.99
2023-11-18T10:05:28.939Z,76.64
2023-11-18T10:07:56.240Z,80.42
2023-11-18T10:10:22.913Z,77.77
2023-11-18T10:12:49.437Z,74.54
2023-11-18T10:15:15.914Z,72.95
2023-11-18T10:17:42.486Z,73.37
2023-11-18T10:20:09.012Z,79.85
2023-11-18T10:22:35.542Z,79.29
2023-11-18T10:25:02.266Z,81.13
2023-11-18T10:27:30.812Z,77.04
2023-11-18T10:29:57.290Z,75.55
2023-11-18T10:32:23.840Z,76.43
2023-11-18T10:34:50.382Z,89.55
2023-11-18T10:37:16.862Z,74.99
2023-11-18T10:39:43.471Z,77.25
2023-11-18T10:42:09.930Z,75.56
2023-11-18T10:44:36.396Z,72.57
2023-11-18T10:47:02.975Z,72.63
2023-11-18T10:49:29.488Z,73.47
2023-11-18T10:51:56.044Z,74.02
2023-11-18T10:54:22.599Z,77.45
2023-11-18T10:56:49.146Z,76.49
2023-11-18T10:59:15.681Z,72.94
2023-11-18T11:01:42.276Z,73.28
2023-11-18T11:04:09.184Z,73.12
2023-11-18T11:06:35.644Z,78.12
2023-11-18T11:09:02.227Z,81.95
2023-11-18T11:11:28.765Z,72.33
2023-11-18T11:13:55.247Z,72.36
2023-11-18T11:16:21.921Z,72.76
2023-11-18T11:18:48.444Z,73.70
2023-11-18T11:21:14.967Z,74.10
2023-11-18T11:23:41.599Z,73.98
2023-11-18T11:26:08.161Z,73.01
2023-11-18T11:28:34.681Z,72.81
2023-11-18T11:31:01.322Z,73.75
2023-11-18T11:33:27.811Z,75.00
2023-11-18T11:35:54.358Z,74.54
2023-11-18T11:38:21.020Z,74.03
2023-11-18T11:40:47.647Z,74.19
2023-11-18T11:43:14.355Z,72.97
2023-11-18T11:45:40.910Z,74.60
2023-11-18T11:48:07.574Z,73.53
2023-11-18T11:50:34.262Z,72.08
2023-11-18T11:53:01.056Z,72.92
2023-11-18T11:55:27.765Z,72.29
2023-11-18T11:57:54.290Z,74.74
2023-11-18T12:00:20.868Z,74.26
2023-11-18T12:02:47.436Z,74.41
2023-11-18T12:05:14.388Z,73.35
2023-11-18T12:07:41.130Z,73.80
2023-11-18T12:10:07.761Z,74.21
2023-11-18T12:12:34.304Z,74.25
2023-11-18T12:15:00.901Z,73.79
2023-11-18T12:17:27.459Z,72.33
2023-11-18T12:19:53.949Z,72.72
2023-11-18T12:22:20.534Z,71.88
2023-11-18T12:24:47.049Z,72.76
2023-11-18T12:27:13.748Z,74.46
2023-11-18T12:29:40.301Z,74.10
2023-11-18T12:32:06.792Z,73.62
2023-11-18T12:34:33.288Z,73.95
2023-11-18T12:36:59.892Z,73.97
2023-11-18T12:39:26.412Z,72.11
2023-11-18T12:41:52.922Z,73.72
2023-11-18T12:44:19.559Z,75.27
2023-11-18T12:46:46.341Z,75.62
2023-11-18T12:49:12.918Z,76.72
2023-11-18T12:51:39.500Z,75.88
2023-11-18T12:54:06.038Z,75.78
2023-11-18T12:56:32.578Z,74.56
2023-11-18T12:58:59.287Z,75.84
2023-11-18T13:01:25.871Z,75.61
2023-11-18T13:03:52.476Z,75.02
2023-11-18T13:06:20.312Z,76.31
2023-11-18T13:08:47.351Z,76.97
2023-11-18T13:11:13.900Z,79.00
2023-11-18T13:13:40.592Z,79.38
2023-11-18T13:16:07.196Z,78.15
2023-11-18T13:18:33.729Z,77.21
2023-11-18T13:21:00.330Z,78.80
2023-11-18T13:23:26.906Z,78.87
2023-11-18T13:25:53.439Z,78.56
2023-11-18T13:28:20.023Z,78.70
2023-11-18T13:30:46.540Z,80.31
2023-11-18T13:33:13.157Z,79.95
2023-11-18T13:35:39.765Z,79.41
2023-11-18T13:38:06.368Z,79.48
2023-11-18T13:40:33.084Z,79.60
2023-11-18T13:42:59.662Z,80.00
2023-11-18T13:45:33.788Z,81.79
2023-11-18T13:48:04.807Z,80.30
2023-11-18T13:50:31.519Z,80.55
2023-11-18T13:52:58.114Z,81.37
2023-11-18T13:55:24.792Z,81.08
2023-11-18T13:57:51.269Z,82.65
2023-11-18T14:00:17.772Z,82.75
2023-11-18T14:02:44.556Z,82.23
2023-11-18T14:05:11.248Z,84.11
2023-11-18T14:07:37.794Z,82.49
2023-11-18T14:10:04.352Z,83.73
2023-11-18T14:12:30.937Z,84.88
2023-11-18T14:14:57.427Z,83.70
2023-11-18T14:17:24.037Z,85.51
2023-11-18T14:19:50.590Z,84.85
2023-11-18T14:22:17.053Z,83.86
2023-11-18T14:24:43.723Z,86.02
2023-11-18T14:27:10.181Z,85.79
2023-11-18T14:29:36.701Z,86.45
2023-11-18T14:32:03.460Z,85.90
2023-11-18T14:34:29.928Z,86.04
2023-11-18T14:36:56.376Z,87.97
2023-11-18T14:39:22.954Z,85.96
2023-11-18T14:41:49.561Z,85.74
2023-11-18T14:44:16.253Z,86.15
2023-11-18T14:46:42.895Z,85.98
2023-11-18T14:49:09.475Z,86.78
2023-11-18T14:51:35.942Z,86.86
2023-11-18T14:54:02.521Z,87.55
2023-11-18T14:56:29.328Z,87.95
2023-11-18T14:58:55.972Z,89.52
2023-11-18T15:01:22.703Z,89.86
2023-11-18T15:03:49.417Z,87.66
2023-11-18T15:06:16.408Z,86.97
2023-11-18T15:08:46.460Z,86.42
2023-11-18T15:11:14.427Z,86.38
2023-11-18T15:13:42.572Z,86.87
2023-11-18T15:16:10.553Z,88.00
2023-11-18T15:18:38.499Z,89.22
2023-11-18T15:21:06.447Z,87.86
2023-11-18T15:23:34.500Z,89.13
2023-11-18T15:26:01.514Z,88.78
2023-11-18T15:28:28.101Z,89.11
2023-11-18T15:30:54.784Z,89.32
2023-11-18T15:33:21.420Z,89.87
2023-11-18T15:35:48.082Z,88.94
2023-11-18T15:38:14.814Z,88.64
2023-11-18T15:40:41.467Z,88.84
2023-11-18T15:43:08.047Z,89.81
2023-11-18T15:45:34.862Z,90.96
2023-11-18T15:48:01.553Z,91.00
2023-11-18T15:50:28.178Z,89.95
2023-11-18T15:52:54.929Z,90.91
2023-11-18T15:55:21.455Z,90.60
2023-11-18T15:57:47.962Z,90.03
2023-11-18T16:00:14.563Z,91.59
2023-11-18T16:02:41.265Z,91.71
2023-11-18T16:05:07.960Z,91.76
2023-11-18T16:07:34.651Z,92.21
2023-11-18T16:10:01.140Z,91.73
2023-11-18T16:12:27.700Z,92.83
2023-11-18T16:14:54.416Z,92.12
2023-11-18T16:17:21.058Z,91.40
2023-11-18T16:19:47.625Z,89.90
2023-11-18T16:22:14.207Z,92.09
2023-11-18T16:24:40.811Z,92.28
2023-11-18T16:27:07.291Z,93.04
2023-11-18T16:29:33.918Z,90.26
2023-11-18T16:32:00.507Z,93.18
2023-11-18T16:34:27.033Z,90.77
2023-11-18T16:36:53.638Z,90.72
2023-11-18T16:39:20.356Z,89.67
2023-11-18T16:41:46.920Z,90.08
2023-11-18T16:44:13.580Z,90.03
2023-11-18T16:46:40.125Z,90.33
2023-11-18T16:49:06.654Z,90.83
2023-11-18T16:51:33.255Z,91.04
2023-11-18T16:53:59.815Z,90.18
2023-11-18T16:56:26.451Z,89.18
2023-11-18T16:58:53.075Z,88.06
2023-11-18T17:01:19.594Z,87.95
2023-11-18T17:03:46.196Z,88.50
2023-11-18T17:06:12.815Z,88.80
2023-11-18T17:08:39.370Z,90.44
2023-11-18T17:11:05.997Z,89.65
2023-11-18T17:13:32.685Z,89.01
2023-11-18T17:15:59.284Z,89.18
2023-11-18T17:18:25.836Z,91.47
2023-11-18T17:20:52.454Z,90.85
2023-11-18T17:23:18.986Z,92.91
2023-11-18T17:25:45.544Z,90.35
2023-11-18T17:28:13.328Z,89.96
2023-11-18T17:30:40.866Z,89.19
2023-11-18T17:33:07.456Z,89.59
2023-11-18T17:35:34.518Z,89.83
2023-11-18T17:38:01.166Z,88.61
2023-11-18T17:40:27.729Z,89.52
2023-11-18T17:42:55.149Z,89.28
2023-11-18T17:45:21.960Z,90.50
2023-11-18T17:47:48.499Z,90.61
2023-11-18T17:50:15.750Z,91.55
2023-11-18T17:52:42.691Z,89.16
2023-11-18T17:55:09.313Z,89.80
2023-11-18T17:57:35.909Z,90.74
2023-11-18T18:00:02.594Z,89.79
2023-11-18T18:02:31.360Z,91.17
2023-11-18T18:04:58.031Z,92.34
2023-11-18T18:07:24.558Z,90.99
2023-11-18T18:09:51.136Z,90.14
2023-11-18T18:12:17.755Z,91.30
2023-11-18T18:14:44.273Z,93.16
2023-11-18T18:17:10.865Z,92.02
2023-11-18T18:19:37.439Z,90.10
2023-11-18T18:22:03.978Z,89.71
2023-11-18T18:24:30.550Z,89.94
2023-11-18T18:26:57.139Z,90.90
2023-11-18T18:29:23.648Z,89.59
2023-11-18T18:31:50.321Z,89.96
2023-11-18T18:34:16.876Z,90.72
2023-11-18T18:36:43.423Z,89.64
2023-11-18T18:39:09.997Z,89.80
2023-11-18T18:41:36.739Z,88.96
2023-11-18T18:44:03.464Z,89.76
2023-11-18T18:46:30.035Z,89.72
2023-11-18T18:48:56.724Z,90.43
2023-11-18T18:51:23.352Z,90.85
2023-11-18T18:53:49.934Z,90.52
2023-11-18T18:56:16.662Z,91.72
2023-11-18T18:58:43.210Z,91.48
2023-11-18T19:01:09.802Z,92.26
2023-11-18T19:03:36.624Z,89.98
2023-11-18T19:06:03.202Z,89.96
2023-11-18T19:08:29.696Z,90.05
2023-11-18T19:10:56.328Z,90.57
2023-11-18T19:13:22.814Z,90.58
2023-11-18T19:15:49.418Z,91.74
2023-11-18T19:18:16.063Z,91.35
2023-11-18T19:20:42.676Z,90.04
2023-11-18T19:23:09.230Z,90.18
2023-11-18T19:25:35.811Z,90.38
2023-11-18T19:28:02.361Z,90.58
2023-11-18T19:30:28.866Z,91.24
2023-11-18T19:32:55.491Z,91.14
2023-11-18T19:35:22.077Z,90.97
2023-11-18T19:37:48.596Z,91.07
2023-11-18T19:40:15.516Z,92.17
2023-11-18T19:42:42.063Z,92.72
2023-11-18T19:45:08.547Z,91.33
2023-11-18T19:47:35.545Z,90.14
2023-11-18T19:50:02.812Z,89.51
2023-11-18T19:52:29.833Z,89.97
2023-11-18T19:54:56.412Z,89.22
2023-11-18T19:57:22.867Z,88.72
2023-11-18T19:59:49.398Z,88.55
2023-11-18T20:02:16.063Z,89.72
2023-11-18T20:04:42.581Z,89.31
2023-11-18T20:07:09.326Z,89.20
2023-11-18T20:09:35.936Z,91.13
2023-11-18T20:12:05.696Z,90.02
2023-11-18T20:14:32.749Z,90.69
2023-11-18T20:16:59.410Z,91.29
2023-11-18T20:19:25.986Z,91.42
2023-11-18T20:21:52.478Z,91.07
2023-11-18T20:24:19.150Z,89.77
2023-11-18T20:26:45.702Z,89.30
2023-11-18T20:29:12.236Z,90.62
2023-11-18T20:31:38.934Z,90.31
2023-11-18T20:34:05.524Z,90.92
2023-11-18T20:36:32.136Z,91.89
2023-11-18T20:38:58.718Z,91.02
2023-11-18T20:41:25.228Z,91.03
2023-11-18T20:43:51.742Z,90.75
2023-11-18T20:46:18.317Z,91.22
2023-11-18T20:48:44.830Z,91.03
2023-11-18T20:51:11.351Z,90.60
2023-11-18T20:53:38.028Z,92.46
2023-11-18T20:56:04.617Z,91.20
2023-11-18T20:58:31.319Z,91.60
2023-11-18T21:00:59.269Z,91.44
2023-11-18T21:03:26.084Z,92.15
2023-11-18T21:05:52.880Z,91.88
2023-11-18T21:08:19.572Z,90.57
2023-11-18T21:10:46.101Z,88.68
2023-11-18T21:13:12.659Z,89.10
2023-11-18T21:15:39.215Z,90.19
2023-11-18T21:18:05.782Z,90.35
2023-11-18T21:20:32.412Z,89.71
2023-11-18T21:22:59.021Z,89.09
2023-11-18T21:25:25.513Z,87.87
2023-11-18T21:27:52.046Z,87.94
2023-11-18T21:30:18.585Z,89.59
2023-11-18T21:32:45.144Z,89.23
2023-11-18T21:35:11.889Z,89.53
2023-11-18T21:37:38.622Z,89.24
2023-11-18T21:40:05.134Z,89.44
2023-11-18T21:42:31.626Z,90.14
2023-11-18T21:44:58.246Z,91.19
2023-11-18T21:47:24.789Z,90.17
2023-11-18T21:49:52.185Z,88.44
2023-11-18T21:52:19.169Z,87.87
2023-11-18T21:54:45.647Z,88.06
2023-11-18T21:57:12.128Z,88.56
2023-11-18T21:59:38.766Z,89.27
2023-11-18T22:02:05.366Z,89.51
2023-11-18T22:04:31.982Z,90.48
2023-11-18T22:06:58.613Z,89.88
2023-11-18T22:09:25.347Z,90.93
2023-11-18T22:11:52.102Z,90.24
2023-11-18T22:14:18.750Z,89.20
2023-11-18T22:16:45.353Z,90.64
2023-11-18T22:19:11.872Z,91.53
2023-11-18T22:21:38.562Z,89.52
2023-11-18T22:24:05.046Z,89.70
2023-11-18T22:26:31.615Z,90.00
2023-11-18T22:28:58.266Z,90.14
2023-11-18T22:31:24.839Z,90.82
2023-11-18T22:33:51.351Z,90.49
2023-11-18T22:36:17.912Z,89.75
2023-11-18T22:38:44.424Z,89.07
2023-11-18T22:41:11.010Z,89.63
2023-11-18T22:43:37.671Z,89.47
2023-11-18T22:46:04.154Z,90.05
2023-11-18T22:48:30.654Z,91.04
2023-11-18T22:50:57.259Z,90.38
2023-11-18T22:53:23.819Z,90.73
2023-11-18T22:55:50.388Z,88.52
2023-11-18T22:58:16.932Z,88.37
2023-11-18T23:00:43.458Z,88.51
2023-11-18T23:03:10.105Z,87.42
2023-11-18T23:05:36.804Z,87.11
2023-11-18T23:08:03.283Z,87.88
2023-11-18T23:10:29.753Z,87.87
2023-11-18T23:12:56.542Z,86.90
2023-11-18T23:15:23.325Z,87.44
2023-11-18T23:17:50.435Z,87.20
2023-11-18T23:20:17.317Z,86.98
2023-11-18T23:22:43.855Z,87.63
2023-11-18T23:25:10.354Z,89.56
2023-11-18T23:27:36.943Z,87.32
2023-11-18T23:30:03.467Z,87.10
2023-11-18T23:32:30.944Z,87.94
2023-11-18T23:34:57.627Z,88.00
2023-11-18T23:37:24.180Z,87.53
2023-11-18T23:39:50.755Z,88.19
2023-11-18T23:42:17.358Z,88.84
2023-11-18T23:44:43.874Z,87.54
2023-11-18T23:47:10.392Z,88.17
2023-11-18T23:49:37.034Z,87.31
2023-11-18T23:52:03.517Z,87.07
2023-11-18T23:54:30.001Z,86.12
2023-11-18T23:56:56.664Z,86.09
2023-11-18T23:59:23.147Z,86.04
